Morgantown Municipal Walter L. Bill Hart Field Morgantown US
ICAO: KMGW
IATA: MGW
Category: Medium
Scheduled Services: Yes

Elevation: 1248 ft
TransAlt. 18000 ft.

Airport Communications:
CLARKSBURG APP/DEP:121.15
ASOS:120.675
CTAF:125.1
GND:121.7
ELKINS RDO:122.6
TWR:125.1
UNICOM:122.95

KMGW Zoom In..

If you have problems with the map follow the link
https://www.worldairports.se/pages/airport.php?
ICAO=KMGW

Runways:

(A) RW 18 length 5199 ft width 150 ft
ILS 108.50 / hdg 181

(B) RW 36 length 5199 ft width 150 ft
---- / hdg 1

Location; KMGW
Day. 18 / Time. 02.53 Zulu
* Altimeter: 30.55
* Temperature: -03° c. -26.6°f.
* Wind from: 340° Speed 03 kn.
Dewpoint: -09° c.
Visibility: 10 Statute Miles.
Clouds: Clear (automated report).

KMGW 180253Z 34003KT 10SM CLR M03/M09 A3055 RMK AO2 SLP361 T10281094 58021


Wind From 340°
Speed 03 kn.

 
 
jpsmedia worldairports.se 2020   terms of use